Cornelius, Oregon
Current Conditions -  °F | °C
As of 10:53 PM on Thursday 18 Dec 2014 (Local Time) from KHIO Reporting Station
Light Rain Light Rain  
Wind Chill: 50°   Ceiling: 6000
Heat Index: 50°   Visibility: 10mi
Dew Point: 49°   Wind: 8mph
Humidity: 96%   Direction: 230°SW
Pressure: 29.83"   Gusts: NA
Location:  45.52°N, 123.05°W
Report Text: KHIO 190653Z AUTO 23007KT 10SM -RA FEW035 SCT045 OVC060 10/09 A2983 RMK AO2 RAB0554 PRESRR SLP102 P0003 T01000094
Loading
Personal Weather Stations






























Interactive Weather Map New forecast layout! Learn more

10-Day Weather Forecast

Advertisements
Track Severe Weather on mobile